Time;durP1;ratioP1;P1;durP2;ratioP2;P2;SDS_P1;SDS_P2;PMS_P1;PMS_P2;Temp;Humidity;BMP_temperature;BMP_pressure;BME280_temperature;BME280_humidity;BME280_pressure;Samples;Min_cycle;Max_cycle;Signal;HPM_P1;HPM_P2
2022/09/18 00:01:09;;;;;;;2.63;2.42;;;9.50;99.90;;;;;;4988373;28;20222;-81
2022/09/18 00:03:36;;;;;;;2.30;2.10;;;9.60;99.90;;;;;;5005010;28;20299;-81
2022/09/18 00:06:07;;;;;;;3.10;2.60;;;9.60;99.90;;;;;;5008970;28;20208;-81
2022/09/18 00:08:33;;;;;;;2.40;2.15;;;9.60;99.90;;;;;;4990969;28;20208;-81
2022/09/18 00:11:04;;;;;;;2.90;2.70;;;9.60;99.90;;;;;;4988683;28;20241;-82
2022/09/18 00:13:31;;;;;;;1.85;1.75;;;9.50;99.90;;;;;;5004120;28;20209;-82
2022/09/18 00:15:59;;;;;;;2.00;1.88;;;9.50;99.90;;;;;;5007936;28;20583;-81
2022/09/18 00:18:26;;;;;;;11.35;3.55;;;9.50;99.90;;;;;;5007179;28;20200;-81
2022/09/18 00:20:52;;;;;;;2.25;2.13;;;9.50;99.90;;;;;;5007627;28;20233;-82
2022/09/18 00:23:19;;;;;;;6.45;2.50;;;9.40;99.90;;;;;;4994829;28;20205;-81
2022/09/18 00:25:46;;;;;;;5.65;3.63;;;9.40;99.90;;;;;;4997679;28;20200;-81
2022/09/18 00:28:13;;;;;;;7.22;2.95;;;9.40;99.90;;;;;;5006930;28;20209;-82
2022/09/18 00:30:39;;;;;;;6.70;3.78;;;9.40;99.90;;;;;;5006938;28;20224;-82
2022/09/18 00:33:07;;;;;;;4.30;3.67;;;9.50;99.90;;;;;;5007658;28;20228;-81
2022/09/18 00:35:34;;;;;;;8.02;3.15;;;9.50;99.90;;;;;;5006655;28;20211;-81
2022/09/18 00:38:01;;;;;;;2.30;2.10;;;9.40;99.90;;;;;;5007211;28;20234;-81
2022/09/18 00:40:27;;;;;;;2.78;2.58;;;9.40;99.90;;;;;;5006011;28;20218;-82
2022/09/18 00:42:54;;;;;;;2.65;2.45;;;9.40;99.90;;;;;;5009914;28;20208;-82
2022/09/18 00:45:21;;;;;;;2.72;2.28;;;9.40;99.90;;;;;;4995304;28;20205;-81
2022/09/18 00:47:50;;;;;;;3.00;2.75;;;9.40;99.90;;;;;;4989742;28;20235;-82
2022/09/18 00:50:22;;;;;;;2.53;2.33;;;9.40;99.90;;;;;;4990517;28;20239;-81
2022/09/18 00:52:53;;;;;;;3.15;2.85;;;9.50;99.90;;;;;;4992327;28;20307;-82
2022/09/18 00:55:25;;;;;;;3.65;3.35;;;9.40;99.90;;;;;;5008093;28;20212;-81
2022/09/18 00:57:55;;;;;;;2.95;2.30;;;9.40;99.90;;;;;;5004845;28;20204;-81
2022/09/18 01:00:23;;;;;;;6.28;2.00;;;9.40;99.90;;;;;;4989146;28;20228;-82
2022/09/18 01:02:50;;;;;;;9.00;3.22;;;9.40;99.90;;;;;;4990364;28;20205;-81
2022/09/18 01:05:25;;;;;;;3.00;2.80;;;9.40;99.90;;;;;;5008947;28;20259;-81
2022/09/18 01:08:02;;;;;;;4.45;2.70;;;9.40;99.90;;;;;;5008479;28;20311;-81
2022/09/18 01:10:44;;;;;;;3.25;2.97;;;9.50;99.90;;;;;;5008240;28;20712;-81
2022/09/18 01:13:20;;;;;;;2.58;2.30;;;9.40;99.90;;;;;;5004240;28;20285;-81
2022/09/18 01:15:54;;;;;;;3.15;2.22;;;9.50;99.90;;;;;;4991285;28;20212;-81
2022/09/18 01:18:29;;;;;;;3.00;2.15;;;9.50;99.90;;;;;;4996968;28;20646;-81
2022/09/18 01:21:12;;;;;;;3.10;2.55;;;9.60;99.90;;;;;;5009608;28;20232;-81
2022/09/18 01:24:18;;;;;;;3.28;2.83;;;9.60;99.90;;;;;;5012263;28;20223;-81
2022/09/18 01:26:53;;;;;;;3.05;2.85;;;9.60;99.90;;;;;;5002279;28;20217;-80
2022/09/18 01:29:30;;;;;;;3.15;2.90;;;9.60;99.90;;;;;;4991210;28;20205;-81
2022/09/18 01:32:03;;;;;;;4.75;4.32;;;9.60;99.90;;;;;;4997225;28;20221;-81
2022/09/18 01:34:35;;;;;;;3.28;2.90;;;9.60;99.90;;;;;;4994213;28;20228;-81
2022/09/18 01:37:08;;;;;;;2.83;2.50;;;9.50;99.90;;;;;;4994928;28;20220;-82
2022/09/18 01:39:40;;;;;;;3.20;2.05;;;9.60;99.90;;;;;;4993950;28;20221;-81
2022/09/18 01:42:10;;;;;;;3.17;1.80;;;9.60;99.90;;;;;;4994429;28;20656;-81
2022/09/18 01:44:42;;;;;;;2.88;2.55;;;9.60;99.90;;;;;;4993749;28;20208;-81
2022/09/18 01:47:12;;;;;;;2.55;2.35;;;9.60;99.90;;;;;;5004467;28;20203;-81
2022/09/18 01:49:43;;;;;;;8.15;2.83;;;9.80;99.90;;;;;;5008986;28;20204;-80
2022/09/18 01:52:16;;;;;;;3.47;2.55;;;9.80;99.90;;;;;;5033600;28;20227;-81
2022/09/18 01:54:47;;;;;;;15.15;3.58;;;9.80;99.90;;;;;;5032966;28;20214;-81
2022/09/18 01:57:18;;;;;;;1.98;1.52;;;9.80;99.90;;;;;;5020390;28;20189;-81
2022/09/18 01:59:50;;;;;;;2.45;1.70;;;9.70;99.90;;;;;;5013367;28;20210;-80
2022/09/18 02:02:23;;;;;;;2.40;1.70;;;9.80;99.90;;;;;;5012358;28;20201;-81
2022/09/18 02:04:54;;;;;;;2.17;2.07;;;9.80;99.90;;;;;;5013278;28;20205;-81
2022/09/18 02:07:28;;;;;;;1.95;1.83;;;9.90;99.90;;;;;;5001584;28;20450;-81
2022/09/18 02:09:56;;;;;;;2.00;1.90;;;9.90;99.90;;;;;;4993020;28;20226;-81
2022/09/18 02:12:26;;;;;;;4.80;2.03;;;9.90;99.90;;;;;;5002837;28;20224;-81
2022/09/18 02:14:58;;;;;;;2.63;2.42;;;9.80;99.90;;;;;;5011144;28;20681;-81
2022/09/18 02:17:29;;;;;;;5.27;2.33;;;9.80;99.90;;;;;;4991349;28;20217;-80
2022/09/18 02:19:59;;;;;;;3.03;2.13;;;9.70;99.90;;;;;;4991109;28;20479;-81
2022/09/18 02:22:29;;;;;;;3.25;2.30;;;9.80;99.90;;;;;;5010693;28;20208;-80
2022/09/18 02:24:59;;;;;;;3.53;2.42;;;9.70;99.90;;;;;;5014528;28;20181;-80
2022/09/18 02:27:27;;;;;;;3.45;2.25;;;9.70;99.90;;;;;;4993046;28;20216;-81
2022/09/18 02:29:56;;;;;;;2.72;2.20;;;9.70;99.90;;;;;;4993398;28;20237;-81
2022/09/18 02:32:23;;;;;;;4.83;2.20;;;9.70;99.90;;;;;;5012264;28;20237;-80
2022/09/18 02:34:50;;;;;;;4.90;2.05;;;9.60;99.90;;;;;;5012548;28;20452;-80
2022/09/18 02:37:32;;;;;;;3.70;3.35;;;9.60;99.90;;;;;;4994376;28;20206;-80
2022/09/18 02:40:10;;;;;;;2.50;2.40;;;9.50;99.90;;;;;;4991805;28;20258;-80
2022/09/18 02:42:44;;;;;;;3.55;2.50;;;9.50;99.90;;;;;;4992293;28;20205;-79
2022/09/18 02:45:22;;;;;;;3.35;2.22;;;9.60;99.90;;;;;;4991928;28;20278;-80
2022/09/18 02:48:10;;;;;;;2.75;2.40;;;9.60;99.90;;;;;;4991693;28;20691;-80
2022/09/18 02:50:42;;;;;;;3.58;2.30;;;9.60;99.90;;;;;;4991574;28;20239;-80
2022/09/18 02:53:13;;;;;;;3.33;2.10;;;9.70;99.90;;;;;;4992011;28;20233;-80
2022/09/18 02:55:46;;;;;;;1.85;1.75;;;9.70;99.90;;;;;;5009527;28;20208;-80
2022/09/18 02:58:18;;;;;;;2.08;1.88;;;9.70;99.90;;;;;;4990173;28;20214;-80
2022/09/18 03:00:48;;;;;;;2.63;2.10;;;9.70;99.90;;;;;;4988569;28;20229;-79
2022/09/18 03:03:16;;;;;;;3.08;2.88;;;9.80;99.90;;;;;;5006419;28;20201;-79
2022/09/18 03:05:44;;;;;;;2.07;1.80;;;9.80;99.90;;;;;;5007070;28;20209;-80
2022/09/18 03:08:11;;;;;;;2.75;2.55;;;9.80;99.90;;;;;;5005921;28;20452;-79
2022/09/18 03:10:38;;;;;;;2.63;2.10;;;9.70;99.90;;;;;;5004783;28;20242;-79
2022/09/18 03:13:05;;;;;;;2.45;2.25;;;9.70;99.90;;;;;;5005050;28;20228;-78
2022/09/18 03:15:32;;;;;;;2.30;2.13;;;9.70;99.90;;;;;;5004012;28;20215;-78
2022/09/18 03:18:00;;;;;;;3.35;2.65;;;9.60;99.90;;;;;;5011127;28;20216;-80
2022/09/18 03:20:27;;;;;;;2.40;2.15;;;9.70;99.90;;;;;;5006495;28;20743;-80
2022/09/18 03:22:54;;;;;;;2.88;2.38;;;9.80;99.90;;;;;;4988843;28;20220;-79
2022/09/18 03:25:20;;;;;;;3.75;2.20;;;9.70;99.90;;;;;;4988971;28;20217;-79
2022/09/18 03:27:47;;;;;;;2.60;2.40;;;9.60;99.90;;;;;;5004400;28;20208;-79
2022/09/18 03:30:14;;;;;;;8.13;4.15;;;9.70;99.90;;;;;;4994771;28;20227;-79
2022/09/18 03:32:41;;;;;;;4.35;2.50;;;9.60;99.90;;;;;;5008781;28;20232;-79
2022/09/18 03:35:09;;;;;;;3.55;3.08;;;9.70;99.90;;;;;;5008331;28;20208;-80
2022/09/18 03:37:36;;;;;;;2.33;2.15;;;9.70;99.90;;;;;;4989242;28;20704;-80
2022/09/18 03:40:03;;;;;;;2.80;2.60;;;9.80;99.90;;;;;;4990095;28;20233;-79
2022/09/18 03:42:30;;;;;;;2.65;2.45;;;9.80;99.90;;;;;;4988771;28;20210;-79
2022/09/18 03:44:57;;;;;;;2.83;2.63;;;9.80;99.90;;;;;;4997618;28;20219;-79
2022/09/18 03:47:24;;;;;;;2.42;2.30;;;9.70;99.90;;;;;;4994471;28;20209;-80
2022/09/18 03:49:50;;;;;;;2.35;2.15;;;9.70;99.90;;;;;;4987984;28;20240;-80
2022/09/18 03:52:19;;;;;;;2.47;2.28;;;9.70;99.90;;;;;;4999319;28;20224;-80
2022/09/18 03:54:45;;;;;;;3.30;2.25;;;9.60;99.90;;;;;;5007575;28;20215;-79
2022/09/18 04:00:34;;;;;;;7.30;2.75;;;9.70;99.90;;;;;;5005960;28;20243;-79
2022/09/18 04:03:01;;;;;;;3.05;2.30;;;9.70;99.90;;;;;;4989465;28;20229;-79
2022/09/18 04:05:28;;;;;;;5.38;3.33;;;9.60;99.90;;;;;;4987008;28;20205;-79
2022/09/18 04:07:56;;;;;;;2.67;2.08;;;9.50;99.90;;;;;;5000809;28;20207;-79
2022/09/18 04:10:22;;;;;;;4.20;2.58;;;9.40;99.90;;;;;;5011641;28;20232;-79
2022/09/18 04:12:49;;;;;;;2.30;2.00;;;9.50;99.90;;;;;;4985671;28;20225;-79
2022/09/18 04:15:16;;;;;;;3.33;2.55;;;9.50;99.90;;;;;;4984147;28;20255;-80
2022/09/18 04:17:43;;;;;;;2.45;2.33;;;9.40;99.90;;;;;;4999011;28;20223;-80
2022/09/18 04:20:10;;;;;;;3.92;2.83;;;9.50;99.90;;;;;;4998579;28;20369;-79
2022/09/18 04:22:37;;;;;;;1.55;1.45;;;9.40;99.90;;;;;;4999363;28;20200;-80
2022/09/18 04:25:06;;;;;;;2.25;2.05;;;9.40;99.90;;;;;;4999206;28;20215;-79
2022/09/18 04:27:35;;;;;;;4.00;2.22;;;9.40;99.90;;;;;;4982299;28;20209;-79
2022/09/18 04:30:01;;;;;;;2.05;1.95;;;9.40;99.90;;;;;;4991066;28;20258;-79
2022/09/18 04:32:28;;;;;;;2.20;2.10;;;9.50;99.90;;;;;;4999420;28;20223;-79
2022/09/18 04:34:55;;;;;;;2.30;2.10;;;9.50;99.90;;;;;;4989349;28;20206;-79
2022/09/18 04:37:22;;;;;;;1.83;1.73;;;9.50;99.90;;;;;;4979689;28;20572;-79
2022/09/18 04:39:48;;;;;;;1.67;1.58;;;9.60;99.90;;;;;;4988060;28;20228;-80
2022/09/18 04:42:16;;;;;;;3.47;2.55;;;9.60;99.90;;;;;;4998869;28;20210;-80
2022/09/18 04:44:43;;;;;;;2.10;1.95;;;9.60;99.90;;;;;;4980653;28;20210;-79
2022/09/18 04:47:10;;;;;;;2.25;2.05;;;9.60;99.90;;;;;;4979747;28;20276;-80
2022/09/18 04:49:36;;;;;;;2.90;2.70;;;9.60;99.90;;;;;;4980979;28;20213;-80
2022/09/18 04:52:03;;;;;;;2.15;1.90;;;9.60;99.90;;;;;;4983036;28;20220;-80
2022/09/18 04:54:30;;;;;;;2.28;2.05;;;9.70;99.90;;;;;;4997585;28;20597;-80
2022/09/18 04:56:57;;;;;;;2.20;2.00;;;9.60;99.90;;;;;;5001358;28;20212;-80
2022/09/18 04:59:25;;;;;;;2.70;2.50;;;9.60;99.90;;;;;;5001877;28;20213;-79
2022/09/18 05:01:51;;;;;;;2.78;2.00;;;9.60;99.90;;;;;;5001738;28;20222;-79
2022/09/18 05:04:18;;;;;;;2.10;1.95;;;9.70;99.90;;;;;;4987184;28;20203;-80
2022/09/18 05:06:45;;;;;;;2.53;1.92;;;9.70;99.90;;;;;;4983377;28;20206;-80
2022/09/18 05:09:11;;;;;;;2.40;2.30;;;9.70;99.90;;;;;;4982825;28;20221;-80
2022/09/18 05:11:38;;;;;;;2.95;2.53;;;9.70;99.90;;;;;;4982950;28;20237;-80
2022/09/18 05:14:05;;;;;;;2.38;1.90;;;9.70;99.90;;;;;;4983201;28;20608;-80
2022/09/18 05:16:33;;;;;;;2.88;1.98;;;9.60;99.90;;;;;;4982893;28;20202;-80
2022/09/18 05:19:00;;;;;;;2.60;2.50;;;9.70;99.90;;;;;;4982852;28;20205;-80
2022/09/18 05:21:26;;;;;;;2.42;2.15;;;9.70;99.90;;;;;;4988401;28;20220;-80
2022/09/18 05:23:53;;;;;;;4.43;3.65;;;9.70;99.90;;;;;;4988502;28;20205;-80
2022/09/18 05:26:20;;;;;;;3.25;3.03;;;9.70;99.90;;;;;;4990442;28;20213;-81
2022/09/18 05:28:48;;;;;;;2.50;2.22;;;9.60;99.90;;;;;;5002006;28;20225;-80
2022/09/18 05:31:15;;;;;;;2.53;2.20;;;9.70;99.90;;;;;;5001401;28;20231;-80
2022/09/18 05:33:44;;;;;;;3.10;1.90;;;9.70;99.90;;;;;;5001896;28;20725;-80
2022/09/18 05:36:10;;;;;;;4.00;2.40;;;9.70;99.90;;;;;;4985435;28;20210;-80
2022/09/18 05:38:37;;;;;;;2.83;2.63;;;9.80;99.90;;;;;;4981976;28;20494;-80
2022/09/18 05:41:04;;;;;;;2.50;2.33;;;9.90;99.90;;;;;;4996548;28;20243;-81
2022/09/18 05:43:31;;;;;;;5.55;3.13;;;9.70;99.90;;;;;;5003493;28;20191;-80
2022/09/18 05:46:01;;;;;;;3.10;2.60;;;9.70;99.90;;;;;;5007097;28;20209;-81
2022/09/18 05:48:28;;;;;;;2.80;2.17;;;9.80;99.90;;;;;;5003173;28;20448;-80
2022/09/18 05:50:56;;;;;;;4.55;2.10;;;9.90;99.90;;;;;;5012075;28;20229;-80
2022/09/18 05:53:23;;;;;;;2.10;2.00;;;9.90;99.90;;;;;;4995212;28;20288;-80
2022/09/18 05:55:50;;;;;;;3.35;2.55;;;9.90;99.90;;;;;;5010681;28;20206;-79
2022/09/18 05:58:18;;;;;;;2.85;2.47;;;9.80;99.90;;;;;;5006495;28;20200;-80
2022/09/18 06:00:45;;;;;;;2.83;2.30;;;9.80;99.90;;;;;;5011418;28;20230;-80
2022/09/18 06:03:14;;;;;;;2.33;2.13;;;9.80;99.90;;;;;;5012026;28;20522;-80
2022/09/18 06:05:42;;;;;;;3.13;2.78;;;9.90;99.90;;;;;;5011535;28;20201;-79
2022/09/18 06:08:12;;;;;;;1.95;1.85;;;9.90;99.90;;;;;;5003468;28;20212;-80
2022/09/18 06:10:40;;;;;;;2.37;2.20;;;10.00;99.90;;;;;;5012832;28;20232;-80
2022/09/18 06:13:08;;;;;;;2.40;2.20;;;10.00;99.90;;;;;;5011329;28;20828;-80
2022/09/18 06:15:36;;;;;;;2.97;2.67;;;10.00;99.90;;;;;;5010558;28;20197;-80
2022/09/18 06:18:03;;;;;;;2.80;2.28;;;10.10;99.90;;;;;;5011572;28;20208;-79
2022/09/18 06:20:29;;;;;;;3.05;2.58;;;10.10;99.90;;;;;;4993447;28;20222;-80
2022/09/18 06:22:59;;;;;;;3.55;2.85;;;10.10;99.90;;;;;;4992805;28;20795;-80
2022/09/18 06:25:27;;;;;;;3.47;3.17;;;10.10;99.90;;;;;;4998477;28;20209;-80
2022/09/18 06:27:57;;;;;;;3.25;2.20;;;10.10;99.90;;;;;;5014638;28;20479;-80
2022/09/18 06:30:24;;;;;;;3.53;3.30;;;10.00;99.90;;;;;;5004526;28;20228;-80
2022/09/18 06:32:51;;;;;;;3.13;2.60;;;10.10;99.90;;;;;;5011827;28;20204;-80
2022/09/18 06:35:18;;;;;;;2.40;2.20;;;10.20;99.90;;;;;;5002887;28;20448;-80
2022/09/18 06:37:44;;;;;;;3.17;2.97;;;10.20;99.90;;;;;;5007185;28;20210;-80
2022/09/18 06:40:11;;;;;;;2.75;2.55;;;10.20;99.90;;;;;;5006465;28;20224;-80
2022/09/18 06:42:39;;;;;;;4.50;3.13;;;10.20;99.90;;;;;;5020638;28;20208;-80
2022/09/18 06:45:07;;;;;;;3.13;2.97;;;10.30;99.90;;;;;;5005269;28;20452;-79
2022/09/18 06:47:34;;;;;;;2.72;2.53;;;10.40;99.90;;;;;;4997498;28;20213;-79
2022/09/18 06:50:00;;;;;;;3.57;3.27;;;10.40;99.90;;;;;;4989887;28;20587;-79
2022/09/18 06:52:27;;;;;;;3.10;2.90;;;10.40;99.90;;;;;;4978531;28;20456;-79
2022/09/18 06:54:54;;;;;;;4.53;2.75;;;10.40;99.90;;;;;;4978980;28;20495;-80
2022/09/18 06:57:20;;;;;;;4.03;3.37;;;10.40;99.90;;;;;;4978566;28;20234;-80
2022/09/18 06:59:48;;;;;;;5.80;5.23;;;10.50;99.90;;;;;;4978194;28;20454;-80
2022/09/18 07:02:15;;;;;;;3.58;3.28;;;10.50;99.90;;;;;;4977940;28;20965;-80
2022/09/18 07:04:42;;;;;;;3.90;3.60;;;10.60;99.90;;;;;;4985608;28;20195;-80
2022/09/18 07:07:09;;;;;;;3.60;3.40;;;10.70;99.90;;;;;;4997621;28;20973;-79
2022/09/18 07:09:35;;;;;;;3.20;3.00;;;10.60;99.90;;;;;;4992377;28;20451;-80
2022/09/18 07:12:03;;;;;;;3.97;3.63;;;10.60;99.90;;;;;;4977058;28;20443;-81
2022/09/18 07:14:29;;;;;;;3.45;2.90;;;10.60;99.90;;;;;;4977830;28;20481;-80
2022/09/18 07:16:57;;;;;;;5.30;2.90;;;10.60;99.90;;;;;;4979165;28;20224;-79
2022/09/18 07:19:24;;;;;;;2.90;2.70;;;10.80;99.90;;;;;;4979958;28;20458;-80
2022/09/18 07:21:51;;;;;;;5.00;3.47;;;10.70;99.90;;;;;;4996407;28;20468;-79
2022/09/18 07:24:18;;;;;;;3.80;3.00;;;10.80;99.90;;;;;;4994246;28;20634;-80
2022/09/18 07:26:45;;;;;;;3.87;2.80;;;10.90;99.90;;;;;;4977699;28;20464;-79
2022/09/18 07:29:11;;;;;;;3.07;2.87;;;10.90;99.90;;;;;;4979354;28;20856;-81
2022/09/18 07:31:38;;;;;;;4.37;3.07;;;11.00;99.90;;;;;;4997527;28;20469;-80
2022/09/18 07:34:08;;;;;;;2.70;2.60;;;11.00;99.90;;;;;;4996537;28;20490;-80
2022/09/18 07:36:34;;;;;;;2.43;2.23;;;11.10;99.90;;;;;;4995517;28;20454;-79
2022/09/18 07:39:01;;;;;;;2.70;2.50;;;10.90;99.90;;;;;;4985762;28;20459;-80
2022/09/18 07:41:28;;;;;;;2.90;2.20;;;10.90;99.90;;;;;;4975357;28;20485;-79
2022/09/18 07:43:55;;;;;;;2.90;2.37;;;10.90;99.90;;;;;;4975757;28;20457;-80
2022/09/18 07:46:22;;;;;;;2.83;2.23;;;10.90;99.90;;;;;;4977931;28;20463;-81
2022/09/18 07:48:48;;;;;;;2.20;1.97;;;11.00;99.90;;;;;;4992223;28;20458;-81
2022/09/18 07:51:16;;;;;;;5.13;2.60;;;11.00;99.90;;;;;;4979337;28;20553;-79
2022/09/18 07:53:43;;;;;;;2.27;2.10;;;11.00;99.90;;;;;;4993300;28;20501;-80
2022/09/18 07:56:11;;;;;;;2.70;2.30;;;11.00;99.90;;;;;;4989841;28;20461;-82
2022/09/18 07:58:38;;;;;;;3.30;3.10;;;11.00;99.90;;;;;;4977785;28;20455;-82
2022/09/18 08:01:06;;;;;;;2.60;1.90;;;11.00;99.90;;;;;;4976182;28;20474;-81
2022/09/18 08:03:33;;;;;;;3.73;2.30;;;11.00;99.90;;;;;;4974767;28;20451;-82
2022/09/18 08:06:00;;;;;;;3.23;2.27;;;10.90;99.90;;;;;;4988709;28;20469;-80
2022/09/18 08:08:28;;;;;;;2.10;2.03;;;10.90;99.90;;;;;;4993027;28;20454;-81
2022/09/18 08:10:56;;;;;;;2.53;2.42;;;10.90;99.90;;;;;;4974878;28;20517;-81
2022/09/18 08:13:23;;;;;;;2.50;2.30;;;10.90;99.90;;;;;;4974035;28;20677;-82
2022/09/18 08:15:49;;;;;;;6.03;1.90;;;10.80;99.90;;;;;;4990189;28;20823;-80
2022/09/18 08:18:16;;;;;;;3.10;2.80;;;10.70;99.90;;;;;;4993847;28;20465;-82
2022/09/18 08:20:43;;;;;;;2.25;2.10;;;10.70;99.90;;;;;;4985876;28;20473;-83
2022/09/18 08:23:11;;;;;;;3.90;2.53;;;10.70;99.90;;;;;;4994539;28;20218;-81
2022/09/18 08:25:40;;;;;;;2.13;1.93;;;10.70;99.90;;;;;;4976871;28;20462;-81
2022/09/18 08:28:07;;;;;;;2.47;2.28;;;10.70;99.90;;;;;;4974100;28;20829;-81
2022/09/18 08:30:35;;;;;;;3.20;3.03;;;10.70;99.90;;;;;;4990179;28;20222;-81
2022/09/18 08:33:03;;;;;;;2.73;2.50;;;10.70;99.90;;;;;;4988455;28;20867;-81
2022/09/18 08:35:31;;;;;;;5.53;2.30;;;10.60;99.90;;;;;;4975574;28;20930;-83
2022/09/18 08:37:58;;;;;;;2.67;2.47;;;10.70;99.90;;;;;;4977131;28;20480;-81
2022/09/18 08:40:41;;;;;;;2.50;2.27;;;10.70;99.90;;;;;;4976422;28;20475;-81
2022/09/18 08:43:20;;;;;;;2.47;2.37;;;10.80;99.90;;;;;;4976719;28;20445;-81
2022/09/18 08:45:57;;;;;;;2.23;2.13;;;10.90;99.90;;;;;;4976136;28;20438;-81
2022/09/18 08:48:28;;;;;;;1.97;1.87;;;10.90;99.90;;;;;;4977124;28;20486;-81
2022/09/18 08:51:00;;;;;;;2.20;1.90;;;11.10;99.90;;;;;;4976350;28;20480;-81
2022/09/18 08:53:33;;;;;;;4.27;2.63;;;11.10;99.90;;;;;;4977170;28;20452;-81
2022/09/18 08:56:01;;;;;;;3.50;2.30;;;11.10;99.90;;;;;;4981525;28;20446;-81
2022/09/18 08:58:37;;;;;;;3.17;1.97;;;11.10;99.90;;;;;;4995656;28;20454;-82
2022/09/18 09:01:09;;;;;;;2.57;2.27;;;11.10;99.90;;;;;;4995805;28;20853;-81
2022/09/18 09:03:49;;;;;;;2.43;2.23;;;11.10;99.90;;;;;;4985677;28;20933;-82
2022/09/18 09:06:28;;;;;;;3.07;2.87;;;11.10;99.90;;;;;;4990868;28;20458;-81
2022/09/18 09:09:09;;;;;;;2.93;2.30;;;11.20;99.90;;;;;;4977527;28;20519;-81
2022/09/18 09:11:48;;;;;;;3.50;2.53;;;11.20;99.90;;;;;;4978028;28;20493;-81
2022/09/18 09:14:36;;;;;;;2.20;2.10;;;11.20;99.90;;;;;;4978154;28;20479;-81
2022/09/18 09:17:09;;;;;;;2.83;2.57;;;11.40;99.90;;;;;;4975848;28;20455;-80
2022/09/18 09:19:46;;;;;;;2.60;2.50;;;11.40;99.90;;;;;;4989774;28;20528;-80
2022/09/18 09:22:17;;;;;;;3.17;2.63;;;11.60;99.90;;;;;;4984074;28;20477;-80
2022/09/18 09:25:00;;;;;;;3.67;2.80;;;11.60;99.90;;;;;;4989948;28;20472;-79
2022/09/18 09:27:33;;;;;;;2.30;2.10;;;11.80;99.90;;;;;;4978640;28;20483;-80
2022/09/18 09:30:04;;;;;;;2.20;2.00;;;11.90;99.90;;;;;;4981620;28;20481;-79
2022/09/18 09:32:36;;;;;;;1.83;1.60;;;11.80;99.90;;;;;;4998090;28;20478;-80
2022/09/18 09:35:16;;;;;;;2.73;2.47;;;11.80;99.90;;;;;;4987369;28;20482;-79
2022/09/18 09:37:46;;;;;;;2.30;1.83;;;11.90;99.90;;;;;;4996943;28;20449;-81
2022/09/18 09:40:16;;;;;;;2.13;2.03;;;12.00;99.90;;;;;;4997897;28;20482;-79
2022/09/18 09:42:49;;;;;;;2.23;2.03;;;12.00;99.90;;;;;;5007031;28;20451;-81
2022/09/18 09:45:23;;;;;;;2.00;1.90;;;12.00;99.90;;;;;;5002223;28;21013;-80
2022/09/18 09:47:56;;;;;;;1.87;1.77;;;12.10;99.90;;;;;;5013515;28;20453;-80
2022/09/18 09:50:40;;;;;;;2.50;2.00;;;12.20;99.90;;;;;;5021250;28;20480;-82
2022/09/18 09:53:11;;;;;;;4.97;3.63;;;12.30;99.90;;;;;;5012240;28;20458;-81
2022/09/18 09:55:48;;;;;;;1.87;1.70;;;12.50;99.90;;;;;;4995682;28;20486;-81
2022/09/18 09:58:28;;;;;;;2.40;1.63;;;12.60;99.90;;;;;;4999185;28;20454;-81
2022/09/18 10:01:06;;;;;;;2.03;1.83;;;12.70;99.90;;;;;;4995386;28;20479;-81
2022/09/18 10:03:45;;;;;;;2.30;1.70;;;13.00;99.90;;;;;;5000052;28;20454;-82
2022/09/18 10:06:23;;;;;;;1.73;1.63;;;13.20;99.90;;;;;;4995420;28;20458;-82
2022/09/18 10:08:56;;;;;;;1.90;1.80;;;13.20;99.90;;;;;;4994943;28;20453;-82
2022/09/18 10:33:07;;;;;;;2.90;2.57;;;14.40;99.90;;;;;;4884350;29;20600;-85
2022/09/18 10:39:23;;;;;;;2.00;1.43;;;14.00;99.90;;;;;;4840302;29;20472;-87
2022/09/18 11:06:06;;;;;;;1.33;1.03;;;14.10;99.90;;;;;;4718192;30;20991;-85
2022/09/18 11:12:35;;;;;;;0.70;0.70;;;14.40;99.90;;;;;;4729740;30;20460;-86
2022/09/18 11:22:53;;;;;;;1.30;0.80;;;15.30;99.90;;;;;;4804864;29;20498;-85
2022/09/18 11:25:25;;;;;;;1.10;0.93;;;15.60;99.90;;;;;;4823118;29;20495;-85
2022/09/18 11:27:54;;;;;;;2.77;1.10;;;15.70;99.90;;;;;;4824611;29;20476;-81
2022/09/18 11:30:23;;;;;;;1.20;1.10;;;15.90;99.90;;;;;;4895463;29;21198;-82
2022/09/18 11:32:54;;;;;;;2.93;1.10;;;16.00;98.90;;;;;;4945898;28;20444;-82
2022/09/18 11:35:22;;;;;;;2.97;1.13;;;15.90;98.40;;;;;;4970683;28;20492;-82
2022/09/18 11:37:52;;;;;;;1.27;0.87;;;15.50;98.80;;;;;;4979437;28;20475;-83
2022/09/18 11:40:24;;;;;;;0.90;0.90;;;15.60;98.80;;;;;;4980864;28;20481;-83
2022/09/18 11:42:54;;;;;;;0.90;0.90;;;15.90;99.30;;;;;;4979494;28;20491;-83
2022/09/18 11:45:32;;;;;;;2.70;1.50;;;16.40;97.60;;;;;;4978947;28;20454;-84
2022/09/18 11:48:08;;;;;;;1.70;1.00;;;16.90;97.00;;;;;;4965243;28;20481;-84
2022/09/18 11:50:37;;;;;;;5.27;1.20;;;17.40;95.70;;;;;;4962859;29;20497;-83
2022/09/18 11:53:10;;;;;;;1.50;1.40;;;17.50;94.00;;;;;;4974824;28;20452;-82
2022/09/18 11:55:42;;;;;;;2.87;1.00;;;17.30;93.40;;;;;;4984935;28;20998;-83
2022/09/18 11:58:15;;;;;;;0.80;0.80;;;17.00;93.80;;;;;;4965954;28;20459;-83
2022/09/18 12:00:48;;;;;;;2.30;1.20;;;16.60;93.70;;;;;;4962489;28;20870;-83
2022/09/18 12:03:21;;;;;;;1.20;0.90;;;16.10;93.70;;;;;;4974708;28;20460;-79
2022/09/18 12:05:55;;;;;;;2.80;1.10;;;15.80;92.60;;;;;;4967936;28;20460;-82
2022/09/18 12:08:38;;;;;;;0.93;0.80;;;15.50;93.20;;;;;;4977850;28;20462;-83
2022/09/18 12:11:17;;;;;;;0.83;0.67;;;15.30;92.50;;;;;;4978585;28;20563;-85
2022/09/18 12:14:16;;;;;;;3.80;0.97;;;15.00;93.60;;;;;;4972900;28;20447;-82
2022/09/18 12:17:13;;;;;;;2.10;1.00;;;15.00;94.20;;;;;;4970857;28;20456;-84
2022/09/18 12:20:26;;;;;;;3.23;1.10;;;15.10;94.00;;;;;;4964567;29;20471;-84
2022/09/18 12:23:21;;;;;;;1.30;1.20;;;15.00;94.10;;;;;;4967525;29;20828;-84
2022/09/18 12:26:02;;;;;;;2.47;1.23;;;15.00;95.50;;;;;;4967143;29;20445;-84
2022/09/18 12:28:36;;;;;;;1.83;0.80;;;15.20;95.90;;;;;;4966851;29;20459;-84
2022/09/18 12:31:11;;;;;;;1.80;1.17;;;15.10;95.10;;;;;;4966550;29;20985;-84
2022/09/18 12:33:46;;;;;;;4.53;1.43;;;15.20;95.70;;;;;;4966881;29;20536;-84
2022/09/18 12:36:57;;;;;;;2.50;1.00;;;15.80;96.80;;;;;;4966952;29;20495;-84
2022/09/18 12:39:40;;;;;;;1.07;1.00;;;17.00;96.10;;;;;;4942448;29;20454;-84
2022/09/18 12:42:19;;;;;;;3.33;1.37;;;17.30;92.40;;;;;;4965616;29;20480;-84
2022/09/18 12:45:21;;;;;;;3.20;0.87;;;17.20;90.50;;;;;;4965155;29;20494;-84
2022/09/18 12:48:03;;;;;;;4.63;1.20;;;17.00;90.30;;;;;;4964898;29;20514;-84
2022/09/18 12:50:45;;;;;;;1.00;0.80;;;17.10;89.80;;;;;;4964978;29;20851;-84
2022/09/18 12:53:25;;;;;;;1.33;0.80;;;17.40;90.00;;;;;;4966305;29;20521;-84
2022/09/18 12:56:06;;;;;;;2.20;0.80;;;17.90;86.40;;;;;;4964739;29;20458;-84
2022/09/18 12:59:02;;;;;;;1.33;0.60;;;17.90;83.90;;;;;;4971243;29;20456;-84
2022/09/18 13:01:36;;;;;;;1.10;1.00;;;18.00;84.30;;;;;;4965811;28;21022;-84
2022/09/18 13:04:08;;;;;;;1.27;0.87;;;17.50;81.10;;;;;;4966066;29;20451;-84
2022/09/18 13:06:42;;;;;;;0.83;0.70;;;17.50;82.20;;;;;;4966058;29;20486;-84
2022/09/18 13:09:17;;;;;;;0.97;0.90;;;17.50;83.20;;;;;;4965712;29;20557;-84
2022/09/18 13:11:48;;;;;;;0.90;0.80;;;17.30;82.70;;;;;;4967868;28;20537;-84
2022/09/18 13:14:21;;;;;;;0.90;0.50;;;16.90;83.40;;;;;;4971281;29;20442;-84
2022/09/18 13:16:51;;;;;;;0.90;0.90;;;16.40;84.10;;;;;;4971859;29;20451;-84
2022/09/18 13:19:23;;;;;;;0.83;0.80;;;16.40;84.00;;;;;;4970780;29;20458;-84
2022/09/18 13:21:51;;;;;;;2.63;0.67;;;16.40;86.00;;;;;;4970714;29;20478;-84
2022/09/18 13:24:21;;;;;;;1.23;1.03;;;16.40;84.80;;;;;;4972726;28;20449;-84
2022/09/18 13:26:50;;;;;;;0.63;0.60;;;16.10;84.80;;;;;;4973280;28;20485;-84
2022/09/18 13:30:03;;;;;;;1.60;0.70;;;16.10;86.10;;;;;;4973902;29;20457;-83
2022/09/18 13:32:41;;;;;;;1.03;0.93;;;16.10;85.80;;;;;;4935889;28;20456;-84
2022/09/18 13:35:20;;;;;;;1.50;1.10;;;16.10;85.00;;;;;;4970652;28;20448;-84
2022/09/18 13:37:48;;;;;;;1.20;1.10;;;16.10;86.50;;;;;;4970385;29;20448;-84
2022/09/18 13:40:32;;;;;;;0.70;0.70;;;16.00;87.10;;;;;;4970356;28;20478;-84
2022/09/18 13:42:59;;;;;;;2.17;0.90;;;16.10;89.00;;;;;;4969661;29;20477;-83
2022/09/18 13:45:27;;;;;;;2.23;0.93;;;16.10;88.70;;;;;;4970003;28;20499;-83
2022/09/18 13:48:04;;;;;;;0.73;0.70;;;16.10;88.30;;;;;;4969530;28;20457;-84
2022/09/18 13:50:32;;;;;;;0.83;0.83;;;16.00;87.70;;;;;;4971822;29;20480;-83
2022/09/18 13:53:00;;;;;;;1.00;0.90;;;15.60;85.50;;;;;;4975841;28;20468;-83
2022/09/18 13:55:36;;;;;;;2.67;1.30;;;15.40;87.10;;;;;;4971075;29;20455;-83
2022/09/18 13:58:46;;;;;;;3.23;1.33;;;15.20;88.10;;;;;;4970991;29;20842;-84
2022/09/18 14:01:55;;;;;;;2.37;1.40;;;15.00;89.00;;;;;;4971146;29;20469;-83
2022/09/18 14:05:10;;;;;;;0.63;0.63;;;14.80;89.80;;;;;;4971124;29;20464;-83
2022/09/18 14:07:56;;;;;;;1.83;1.13;;;14.50;90.20;;;;;;4970607;29;20444;-84
2022/09/18 14:10:29;;;;;;;0.70;0.70;;;14.40;90.80;;;;;;4970847;29;20479;-84
2022/09/18 14:13:29;;;;;;;0.80;0.80;;;14.50;91.20;;;;;;4971074;29;20449;-83
2022/09/18 14:15:59;;;;;;;0.97;0.90;;;14.70;91.20;;;;;;4969969;29;20441;-83
2022/09/18 14:18:28;;;;;;;2.37;1.00;;;14.90;90.60;;;;;;4970067;29;20448;-84